createdAt,value
2023-01-07T00:03:39.257Z,2.10
2023-01-07T00:09:42.788Z,2.38
2023-01-07T00:15:47.800Z,1.50
2023-01-07T00:21:51.267Z,1.70
2023-01-07T00:27:54.697Z,2.08
2023-01-07T00:34:09.384Z,1.10
2023-01-07T00:40:13.353Z,1.63
2023-01-07T00:46:17.221Z,1.95
2023-01-07T00:52:21.992Z,1.85
2023-01-07T00:58:26.129Z,1.40
2023-01-07T01:04:29.513Z,1.63
2023-01-07T01:10:34.995Z,2.33
2023-01-07T01:16:38.492Z,1.95
2023-01-07T01:22:41.997Z,2.20
2023-01-07T01:28:47.208Z,2.00
2023-01-07T01:34:50.649Z,1.95
2023-01-07T01:40:54.354Z,2.08
2023-01-07T01:46:59.182Z,2.30
2023-01-07T01:53:04.753Z,2.08
2023-01-07T01:59:11.516Z,1.45
2023-01-07T02:05:17.006Z,2.25
2023-01-07T02:11:25.866Z,2.40
2023-01-07T02:17:36.074Z,2.00
2023-01-07T02:23:53.725Z,0.98
2023-01-07T02:30:14.929Z,1.60
2023-01-07T02:36:31.368Z,2.05
2023-01-07T02:42:39.414Z,1.38
2023-01-07T02:48:43.585Z,1.80
2023-01-07T02:54:50.457Z,2.20
2023-01-07T03:01:01.379Z,1.70
2023-01-07T03:07:15.756Z,3.15
2023-01-07T03:13:22.688Z,1.65
2023-01-07T03:19:30.202Z,1.40
2023-01-07T03:25:34.076Z,3.67
2023-01-07T03:31:40.416Z,2.20
2023-01-07T03:37:44.283Z,2.28
2023-01-07T03:43:47.671Z,2.30
2023-01-07T03:49:52.594Z,2.50
2023-01-07T03:55:56.083Z,1.33
2023-01-07T04:01:59.731Z,2.95
2023-01-07T04:08:04.490Z,1.88
2023-01-07T04:14:07.899Z,2.58
2023-01-07T04:20:12.326Z,2.58
2023-01-07T04:26:17.106Z,2.70
2023-01-07T04:32:20.599Z,1.80
2023-01-07T04:38:23.975Z,2.55
2023-01-07T04:44:28.917Z,2.10
2023-01-07T04:50:32.916Z,2.50
2023-01-07T04:56:36.518Z,2.53
2023-01-07T05:02:41.423Z,2.47
2023-01-07T05:08:45.061Z,1.50
2023-01-07T05:14:48.504Z,1.90
2023-01-07T05:20:53.279Z,1.75
2023-01-07T05:26:57.176Z,2.17
2023-01-07T05:33:00.559Z,1.88
2023-01-07T05:39:05.590Z,2.20
2023-01-07T05:45:09.770Z,2.40
2023-01-07T05:51:13.306Z,1.75
2023-01-07T05:57:18.467Z,1.60
2023-01-07T06:03:22.526Z,1.60
2023-01-07T06:09:26.057Z,1.65
2023-01-07T06:15:33.965Z,1.33
2023-01-07T06:21:37.398Z,1.63
2023-01-07T06:27:41.787Z,1.98
2023-01-07T06:33:46.596Z,3.42
2023-01-07T06:39:49.987Z,3.42
2023-01-07T06:45:53.391Z,1.95
2023-01-07T06:51:58.151Z,2.55
2023-01-07T06:58:01.584Z,3.55
2023-01-07T07:04:04.982Z,1.85
2023-01-07T07:10:10.291Z,1.98
2023-01-07T07:16:13.859Z,1.20
2023-01-07T07:22:17.508Z,1.15
2023-01-07T07:28:22.269Z,1.23
2023-01-07T07:34:26.861Z,1.30
2023-01-07T07:40:30.291Z,1.20
2023-01-07T07:46:35.103Z,1.10
2023-01-07T07:52:38.603Z,1.10
2023-01-07T07:58:43.008Z,1.17
2023-01-07T08:04:47.847Z,1.20
2023-01-07T08:10:51.247Z,2.13
2023-01-07T08:16:54.627Z,2.15
2023-01-07T08:23:01.425Z,1.67
2023-01-07T08:29:05.475Z,2.08
2023-01-07T08:35:09.577Z,1.30
2023-01-07T08:41:14.413Z,0.95
2023-01-07T08:47:17.815Z,1.10
2023-01-07T08:53:21.970Z,1.10
2023-01-07T08:59:26.756Z,1.63
2023-01-07T09:05:30.585Z,1.58
2023-01-07T09:11:34.117Z,1.27
2023-01-07T09:17:38.942Z,1.20
2023-01-07T09:23:42.350Z,1.08
2023-01-07T09:29:45.727Z,1.30
2023-01-07T09:35:50.693Z,1.42
2023-01-07T09:41:57.715Z,1.02
2023-01-07T09:48:03.117Z,1.20
2023-01-07T09:54:10.984Z,1.20
2023-01-07T10:00:17.323Z,1.10
2023-01-07T10:06:38.409Z,1.10
2023-01-07T10:12:49.676Z,1.38
2023-01-07T10:18:56.790Z,1.27
2023-01-07T10:25:03.475Z,1.10
2023-01-07T10:31:12.150Z,1.10
2023-01-07T10:37:18.178Z,1.30
2023-01-07T10:43:29.451Z,3.55
2023-01-07T10:49:41.773Z,2.65
2023-01-07T10:55:51.024Z,1.83
2023-01-07T11:01:55.556Z,2.17
2023-01-07T11:08:02.338Z,4.13
2023-01-07T11:14:08.715Z,3.65
2023-01-07T11:20:12.443Z,3.38
2023-01-07T11:26:18.915Z,2.38
2023-01-07T11:32:26.195Z,2.17
2023-01-07T11:38:31.084Z,2.10
2023-01-07T11:44:35.849Z,1.85
2023-01-07T11:50:40.996Z,1.95
2023-01-07T11:56:44.428Z,2.20
2023-01-07T12:03:01.064Z,2.17
2023-01-07T12:09:15.912Z,2.30
2023-01-07T12:15:21.001Z,7.72
2023-01-07T12:21:42.505Z,2.00
2023-01-07T12:27:50.686Z,1.90
2023-01-07T12:34:07.878Z,1.70
2023-01-07T12:40:20.778Z,1.70
2023-01-07T12:46:25.883Z,1.95
2023-01-07T12:52:32.036Z,2.05
2023-01-07T12:58:41.668Z,1.75
2023-01-07T13:04:51.897Z,2.72
2023-01-07T13:10:57.120Z,1.83
2023-01-07T13:17:03.588Z,2.13
2023-01-07T13:23:13.256Z,3.05
2023-01-07T13:29:22.020Z,1.88
2023-01-07T13:35:38.575Z,2.67
2023-01-07T13:41:48.810Z,2.13
2023-01-07T13:47:53.273Z,2.10
2023-01-07T13:53:56.743Z,2.88
2023-01-07T14:00:02.140Z,2.25
2023-01-07T14:06:23.943Z,2.63
2023-01-07T14:12:48.397Z,2.40
2023-01-07T14:19:04.180Z,2.30
2023-01-07T14:25:20.742Z,2.30
2023-01-07T14:31:25.902Z,2.38
2023-01-07T14:37:37.747Z,2.45
2023-01-07T14:44:05.145Z,3.28
2023-01-07T14:50:17.393Z,2.10
2023-01-07T14:56:32.902Z,1.65
2023-01-07T15:02:48.683Z,1.95
2023-01-07T15:09:11.304Z,2.30
2023-01-07T15:15:35.020Z,2.22
2023-01-07T15:21:42.950Z,1.88
2023-01-07T15:27:51.385Z,2.20
2023-01-07T15:34:02.520Z,1.92
2023-01-07T15:40:06.294Z,2.17
2023-01-07T15:46:09.982Z,1.98
2023-01-07T15:52:24.640Z,2.03
2023-01-07T15:58:34.970Z,2.20
2023-01-07T16:04:41.990Z,2.53
2023-01-07T16:10:58.764Z,2.63
2023-01-07T16:17:14.583Z,2.15
2023-01-07T16:23:22.025Z,2.20
2023-01-07T16:29:28.482Z,3.20
2023-01-07T16:35:33.861Z,3.33
2023-01-07T16:41:37.567Z,2.15
2023-01-07T16:47:42.614Z,2.10
2023-01-07T16:53:46.195Z,2.10
2023-01-07T16:59:53.832Z,2.38
2023-01-07T17:06:03.791Z,3.30
2023-01-07T17:12:07.622Z,2.95
2023-01-07T17:18:29.654Z,4.20
2023-01-07T17:24:51.427Z,2.65
2023-01-07T17:30:55.353Z,3.05
2023-01-07T17:36:58.765Z,3.80
2023-01-07T17:43:20.512Z,2.50
2023-01-07T17:49:23.892Z,2.63
2023-01-07T17:55:28.285Z,2.40
2023-01-07T18:01:33.441Z,3.60
2023-01-07T18:07:36.876Z,3.15
2023-01-07T18:13:40.349Z,3.42
2023-01-07T18:19:45.581Z,3.30
2023-01-07T18:25:49.048Z,7.68
2023-01-07T18:31:52.640Z,4.10
2023-01-07T18:37:57.492Z,4.45
2023-01-07T18:44:00.947Z,4.07
2023-01-07T18:50:04.681Z,4.30
2023-01-07T18:56:11.782Z,4.20
2023-01-07T19:02:16.594Z,4.30
2023-01-07T19:08:23.701Z,4.25
2023-01-07T19:14:28.677Z,4.22
2023-01-07T19:20:32.979Z,4.35
2023-01-07T19:26:36.967Z,4.35
2023-01-07T19:32:41.939Z,3.90
2023-01-07T19:38:46.207Z,4.13
2023-01-07T19:44:49.862Z,3.55
2023-01-07T19:50:58.864Z,4.80
2023-01-07T19:57:02.270Z,3.85
2023-01-07T20:03:05.800Z,4.13
2023-01-07T20:09:11.565Z,3.55
2023-01-07T20:15:14.924Z,3.45
2023-01-07T20:21:19.165Z,3.53
2023-01-07T20:27:23.944Z,3.40
2023-01-07T20:33:27.421Z,3.30
2023-01-07T20:39:31.012Z,3.40
2023-01-07T20:45:38.303Z,3.17
2023-01-07T20:51:42.014Z,3.25
2023-01-07T20:57:45.403Z,3.13
2023-01-07T21:03:50.664Z,3.30
2023-01-07T21:09:54.109Z,3.58
2023-01-07T21:16:03.374Z,3.20
2023-01-07T21:22:08.242Z,3.42
2023-01-07T21:28:11.600Z,3.08
2023-01-07T21:34:15.477Z,3.47
2023-01-07T21:40:20.302Z,3.83
2023-01-07T21:46:23.968Z,3.10
2023-01-07T21:52:27.674Z,2.50
2023-01-07T21:58:32.460Z,1.75
2023-01-07T22:04:35.890Z,1.42
2023-01-07T22:10:39.272Z,1.70
2023-01-07T22:16:44.188Z,1.80
2023-01-07T22:22:48.191Z,2.22
2023-01-07T22:28:54.452Z,1.80
2023-01-07T22:34:59.375Z,2.22
2023-01-07T22:41:03.818Z,1.20
2023-01-07T22:47:09.079Z,1.75
2023-01-07T22:53:13.854Z,1.55
2023-01-07T22:59:17.307Z,1.95
2023-01-07T23:05:20.752Z,0.90
2023-01-07T23:11:43.362Z,1.10
2023-01-07T23:17:46.781Z,1.75
2023-01-07T23:23:50.163Z,1.10
2023-01-07T23:29:54.941Z,1.40
2023-01-07T23:36:02.844Z,1.05
2023-01-07T23:42:06.258Z,1.10
2023-01-07T23:48:11.171Z,1.02
2023-01-07T23:54:14.731Z,0.93
